sensor_id;sensor_type;location;lat;lon;timestamp;temperature;humidity
33207;DHT22;19565;46.602;11.534;2023-07-16T00:00:26;23.70;99.90
33207;DHT22;19565;46.602;11.534;2023-07-16T00:02:54;23.70;99.90
33207;DHT22;19565;46.602;11.534;2023-07-16T00:05:24;23.70;99.90
33207;DHT22;19565;46.602;11.534;2023-07-16T00:07:52;23.70;99.90
33207;DHT22;19565;46.602;11.534;2023-07-16T00:10:20;23.70;99.90
33207;DHT22;19565;46.602;11.534;2023-07-16T00:12:48;23.70;99.90
33207;DHT22;19565;46.602;11.534;2023-07-16T00:15:16;23.70;99.90
33207;DHT22;19565;46.602;11.534;2023-07-16T00:17:44;23.70;99.90
33207;DHT22;19565;46.602;11.534;2023-07-16T00:20:12;23.70;99.90
33207;DHT22;19565;46.602;11.534;2023-07-16T00:22:41;23.70;99.90
33207;DHT22;19565;46.602;11.534;2023-07-16T00:25:09;23.60;99.90
33207;DHT22;19565;46.602;11.534;2023-07-16T00:27:38;23.60;99.90
33207;DHT22;19565;46.602;11.534;2023-07-16T00:30:07;23.50;99.90
33207;DHT22;19565;46.602;11.534;2023-07-16T00:32:35;23.40;99.90
33207;DHT22;19565;46.602;11.534;2023-07-16T00:35:04;23.40;99.90
33207;DHT22;19565;46.602;11.534;2023-07-16T00:37:33;23.40;99.90
33207;DHT22;19565;46.602;11.534;2023-07-16T00:40:04;23.50;99.90
33207;DHT22;19565;46.602;11.534;2023-07-16T00:42:32;23.50;99.90
33207;DHT22;19565;46.602;11.534;2023-07-16T00:45:01;23.50;99.90
33207;DHT22;19565;46.602;11.534;2023-07-16T00:47:29;23.50;99.90
33207;DHT22;19565;46.602;11.534;2023-07-16T00:49:58;23.40;99.90
33207;DHT22;19565;46.602;11.534;2023-07-16T00:52:26;23.40;99.90
33207;DHT22;19565;46.602;11.534;2023-07-16T00:54:55;23.40;99.90
33207;DHT22;19565;46.602;11.534;2023-07-16T00:57:25;23.40;99.90
33207;DHT22;19565;46.602;11.534;2023-07-16T00:59:53;23.30;99.90
33207;DHT22;19565;46.602;11.534;2023-07-16T01:02:21;23.30;99.90
33207;DHT22;19565;46.602;11.534;2023-07-16T01:04:49;23.30;99.90
33207;DHT22;19565;46.602;11.534;2023-07-16T01:07:18;23.30;99.90
33207;DHT22;19565;46.602;11.534;2023-07-16T01:09:49;23.30;99.90
33207;DHT22;19565;46.602;11.534;2023-07-16T01:12:20;23.30;99.90
33207;DHT22;19565;46.602;11.534;2023-07-16T01:14:51;23.40;99.90
33207;DHT22;19565;46.602;11.534;2023-07-16T01:17:20;23.40;99.90
33207;DHT22;19565;46.602;11.534;2023-07-16T01:19:48;23.40;99.90
33207;DHT22;19565;46.602;11.534;2023-07-16T01:22:27;23.40;99.90
33207;DHT22;19565;46.602;11.534;2023-07-16T01:25:24;23.40;99.90
33207;DHT22;19565;46.602;11.534;2023-07-16T01:28:11;23.40;99.90
33207;DHT22;19565;46.602;11.534;2023-07-16T01:30:44;23.40;99.90
33207;DHT22;19565;46.602;11.534;2023-07-16T01:33:13;23.40;99.90
33207;DHT22;19565;46.602;11.534;2023-07-16T01:35:43;23.30;99.90
33207;DHT22;19565;46.602;11.534;2023-07-16T01:38:12;23.30;99.90
33207;DHT22;19565;46.602;11.534;2023-07-16T01:40:41;23.30;99.90
33207;DHT22;19565;46.602;11.534;2023-07-16T01:43:09;23.20;99.90
33207;DHT22;19565;46.602;11.534;2023-07-16T01:45:38;23.20;99.90
33207;DHT22;19565;46.602;11.534;2023-07-16T01:48:14;23.20;99.90
33207;DHT22;19565;46.602;11.534;2023-07-16T01:50:44;23.20;99.90
33207;DHT22;19565;46.602;11.534;2023-07-16T01:53:12;23.20;99.90
33207;DHT22;19565;46.602;11.534;2023-07-16T01:55:40;23.20;99.90
33207;DHT22;19565;46.602;11.534;2023-07-16T01:58:08;23.20;99.90
33207;DHT22;19565;46.602;11.534;2023-07-16T02:00:36;23.10;99.90
33207;DHT22;19565;46.602;11.534;2023-07-16T02:03:04;23.10;99.90
33207;DHT22;19565;46.602;11.534;2023-07-16T02:05:34;23.10;99.90
33207;DHT22;19565;46.602;11.534;2023-07-16T02:08:02;23.10;99.90
33207;DHT22;19565;46.602;11.534;2023-07-16T02:10:30;23.10;99.90
33207;DHT22;19565;46.602;11.534;2023-07-16T02:12:58;23.00;99.90
33207;DHT22;19565;46.602;11.534;2023-07-16T02:15:26;23.00;99.90
33207;DHT22;19565;46.602;11.534;2023-07-16T02:17:54;22.90;99.90
33207;DHT22;19565;46.602;11.534;2023-07-16T02:20:23;22.90;99.90
33207;DHT22;19565;46.602;11.534;2023-07-16T02:22:52;23.00;99.90
33207;DHT22;19565;46.602;11.534;2023-07-16T02:25:20;23.00;99.90
33207;DHT22;19565;46.602;11.534;2023-07-16T02:27:48;23.00;99.90
33207;DHT22;19565;46.602;11.534;2023-07-16T02:30:16;23.00;99.90
33207;DHT22;19565;46.602;11.534;2023-07-16T02:32:44;23.00;99.90
33207;DHT22;19565;46.602;11.534;2023-07-16T02:35:13;23.00;99.90
33207;DHT22;19565;46.602;11.534;2023-07-16T02:37:41;23.00;99.90
33207;DHT22;19565;46.602;11.534;2023-07-16T02:40:10;22.90;99.90
33207;DHT22;19565;46.602;11.534;2023-07-16T02:42:38;22.90;99.90
33207;DHT22;19565;46.602;11.534;2023-07-16T02:45:07;22.90;99.90
33207;DHT22;19565;46.602;11.534;2023-07-16T02:47:36;22.90;99.90
33207;DHT22;19565;46.602;11.534;2023-07-16T02:50:04;22.90;99.90
33207;DHT22;19565;46.602;11.534;2023-07-16T02:52:32;22.90;99.90
33207;DHT22;19565;46.602;11.534;2023-07-16T02:55:00;22.80;99.90
33207;DHT22;19565;46.602;11.534;2023-07-16T02:57:30;22.80;99.90
33207;DHT22;19565;46.602;11.534;2023-07-16T02:59:58;22.80;99.90
33207;DHT22;19565;46.602;11.534;2023-07-16T03:02:26;22.80;99.90
33207;DHT22;19565;46.602;11.534;2023-07-16T03:04:54;22.80;99.90
33207;DHT22;19565;46.602;11.534;2023-07-16T03:07:22;22.80;99.90
33207;DHT22;19565;46.602;11.534;2023-07-16T03:09:50;22.80;99.90
33207;DHT22;19565;46.602;11.534;2023-07-16T03:12:20;22.70;99.90
33207;DHT22;19565;46.602;11.534;2023-07-16T03:14:50;22.50;99.90
33207;DHT22;19565;46.602;11.534;2023-07-16T03:17:21;22.60;99.90
33207;DHT22;19565;46.602;11.534;2023-07-16T03:19:49;22.60;99.90
33207;DHT22;19565;46.602;11.534;2023-07-16T03:22:17;22.60;99.90
33207;DHT22;19565;46.602;11.534;2023-07-16T03:24:45;22.70;99.90
33207;DHT22;19565;46.602;11.534;2023-07-16T03:27:13;22.60;99.90
33207;DHT22;19565;46.602;11.534;2023-07-16T03:29:45;22.60;99.90
33207;DHT22;19565;46.602;11.534;2023-07-16T03:32:14;22.60;99.90
33207;DHT22;19565;46.602;11.534;2023-07-16T03:34:42;22.40;99.90
33207;DHT22;19565;46.602;11.534;2023-07-16T03:37:10;22.30;99.90
33207;DHT22;19565;46.602;11.534;2023-07-16T03:39:38;22.30;99.90
33207;DHT22;19565;46.602;11.534;2023-07-16T03:42:06;22.40;99.90
33207;DHT22;19565;46.602;11.534;2023-07-16T03:44:34;22.40;99.90
33207;DHT22;19565;46.602;11.534;2023-07-16T03:47:03;22.50;99.90
33207;DHT22;19565;46.602;11.534;2023-07-16T03:49:32;22.30;99.90
33207;DHT22;19565;46.602;11.534;2023-07-16T03:52:01;22.00;99.90
33207;DHT22;19565;46.602;11.534;2023-07-16T03:54:29;22.00;99.90
33207;DHT22;19565;46.602;11.534;2023-07-16T03:56:57;22.10;99.90
33207;DHT22;19565;46.602;11.534;2023-07-16T03:59:25;22.20;99.90
33207;DHT22;19565;46.602;11.534;2023-07-16T04:01:53;22.20;99.90
33207;DHT22;19565;46.602;11.534;2023-07-16T04:04:21;22.30;99.90
33207;DHT22;19565;46.602;11.534;2023-07-16T04:06:50;22.30;99.90
33207;DHT22;19565;46.602;11.534;2023-07-16T04:09:18;22.30;99.90
33207;DHT22;19565;46.602;11.534;2023-07-16T04:11:46;22.30;99.90
33207;DHT22;19565;46.602;11.534;2023-07-16T04:14:14;22.30;99.90
33207;DHT22;19565;46.602;11.534;2023-07-16T04:16:42;22.30;99.90
33207;DHT22;19565;46.602;11.534;2023-07-16T04:19:10;22.30;99.90
33207;DHT22;19565;46.602;11.534;2023-07-16T04:21:38;22.30;99.90
33207;DHT22;19565;46.602;11.534;2023-07-16T04:24:08;22.40;99.90
33207;DHT22;19565;46.602;11.534;2023-07-16T04:26:36;22.40;99.90
33207;DHT22;19565;46.602;11.534;2023-07-16T04:29:04;22.40;99.90
33207;DHT22;19565;46.602;11.534;2023-07-16T04:31:32;22.40;99.90
33207;DHT22;19565;46.602;11.534;2023-07-16T04:34:00;22.40;99.90
33207;DHT22;19565;46.602;11.534;2023-07-16T04:36:29;22.50;99.90
33207;DHT22;19565;46.602;11.534;2023-07-16T04:38:57;22.50;99.90
33207;DHT22;19565;46.602;11.534;2023-07-16T04:41:27;22.50;99.90
33207;DHT22;19565;46.602;11.534;2023-07-16T04:43:55;22.60;99.90
33207;DHT22;19565;46.602;11.534;2023-07-16T04:46:23;22.60;99.90
33207;DHT22;19565;46.602;11.534;2023-07-16T04:48:51;22.40;99.90
33207;DHT22;19565;46.602;11.534;2023-07-16T04:51:20;22.10;99.90
33207;DHT22;19565;46.602;11.534;2023-07-16T04:53:48;22.10;99.90
33207;DHT22;19565;46.602;11.534;2023-07-16T04:56:16;21.80;99.90
33207;DHT22;19565;46.602;11.534;2023-07-16T04:58:46;21.70;99.90
33207;DHT22;19565;46.602;11.534;2023-07-16T05:01:14;21.70;99.90
33207;DHT22;19565;46.602;11.534;2023-07-16T05:03:42;21.70;99.90
33207;DHT22;19565;46.602;11.534;2023-07-16T05:06:11;21.90;99.90
33207;DHT22;19565;46.602;11.534;2023-07-16T05:08:39;22.00;99.90
33207;DHT22;19565;46.602;11.534;2023-07-16T05:11:07;21.90;99.90
33207;DHT22;19565;46.602;11.534;2023-07-16T05:13:35;22.00;99.90
33207;DHT22;19565;46.602;11.534;2023-07-16T05:16:04;22.10;99.90
33207;DHT22;19565;46.602;11.534;2023-07-16T05:18:32;22.20;99.90
33207;DHT22;19565;46.602;11.534;2023-07-16T05:21:00;22.30;99.90
33207;DHT22;19565;46.602;11.534;2023-07-16T05:23:30;22.40;99.90
33207;DHT22;19565;46.602;11.534;2023-07-16T05:25:58;22.50;99.90
33207;DHT22;19565;46.602;11.534;2023-07-16T05:28:26;22.60;99.90
33207;DHT22;19565;46.602;11.534;2023-07-16T05:30:58;22.60;99.90
33207;DHT22;19565;46.602;11.534;2023-07-16T05:33:28;22.60;99.90
33207;DHT22;19565;46.602;11.534;2023-07-16T05:35:56;22.60;99.90
33207;DHT22;19565;46.602;11.534;2023-07-16T05:38:24;22.60;99.90
33207;DHT22;19565;46.602;11.534;2023-07-16T05:40:52;22.70;99.90
33207;DHT22;19565;46.602;11.534;2023-07-16T05:43:20;22.70;99.90
33207;DHT22;19565;46.602;11.534;2023-07-16T05:45:48;22.60;99.90
33207;DHT22;19565;46.602;11.534;2023-07-16T05:48:16;22.50;99.90
33207;DHT22;19565;46.602;11.534;2023-07-16T05:50:46;22.60;99.90
33207;DHT22;19565;46.602;11.534;2023-07-16T05:53:14;22.50;99.90
33207;DHT22;19565;46.602;11.534;2023-07-16T05:55:42;22.60;99.90
33207;DHT22;19565;46.602;11.534;2023-07-16T05:58:10;22.70;99.90
33207;DHT22;19565;46.602;11.534;2023-07-16T06:00:38;22.70;99.90
33207;DHT22;19565;46.602;11.534;2023-07-16T06:03:07;22.70;99.90
33207;DHT22;19565;46.602;11.534;2023-07-16T06:05:35;22.90;99.90
33207;DHT22;19565;46.602;11.534;2023-07-16T06:08:05;23.00;99.90
33207;DHT22;19565;46.602;11.534;2023-07-16T06:10:34;23.00;99.90
33207;DHT22;19565;46.602;11.534;2023-07-16T06:13:02;23.20;99.90
33207;DHT22;19565;46.602;11.534;2023-07-16T06:15:30;23.20;99.90
33207;DHT22;19565;46.602;11.534;2023-07-16T06:17:58;23.20;99.90
33207;DHT22;19565;46.602;11.534;2023-07-16T06:20:26;23.30;99.90
33207;DHT22;19565;46.602;11.534;2023-07-16T06:22:55;23.30;99.90
33207;DHT22;19565;46.602;11.534;2023-07-16T06:25:25;23.40;99.90
33207;DHT22;19565;46.602;11.534;2023-07-16T06:27:53;23.50;99.90
33207;DHT22;19565;46.602;11.534;2023-07-16T06:30:21;23.60;99.90
33207;DHT22;19565;46.602;11.534;2023-07-16T06:32:49;23.60;99.90
33207;DHT22;19565;46.602;11.534;2023-07-16T06:35:17;23.70;99.90
33207;DHT22;19565;46.602;11.534;2023-07-16T06:37:45;23.80;99.90
33207;DHT22;19565;46.602;11.534;2023-07-16T06:40:14;23.90;99.90
33207;DHT22;19565;46.602;11.534;2023-07-16T06:42:43;23.90;99.90
33207;DHT22;19565;46.602;11.534;2023-07-16T06:45:11;24.00;99.90
33207;DHT22;19565;46.602;11.534;2023-07-16T06:47:39;24.10;99.90
33207;DHT22;19565;46.602;11.534;2023-07-16T06:50:08;24.10;99.90
33207;DHT22;19565;46.602;11.534;2023-07-16T06:52:36;24.20;99.90
33207;DHT22;19565;46.602;11.534;2023-07-16T06:55:05;24.20;99.90
33207;DHT22;19565;46.602;11.534;2023-07-16T06:57:33;24.30;99.90
33207;DHT22;19565;46.602;11.534;2023-07-16T07:00:03;24.30;99.90
33207;DHT22;19565;46.602;11.534;2023-07-16T07:02:31;24.40;99.90
33207;DHT22;19565;46.602;11.534;2023-07-16T07:04:59;24.40;99.90
33207;DHT22;19565;46.602;11.534;2023-07-16T07:07:27;24.40;99.90
33207;DHT22;19565;46.602;11.534;2023-07-16T07:09:55;24.40;99.90
33207;DHT22;19565;46.602;11.534;2023-07-16T07:12:23;24.50;99.90
33207;DHT22;19565;46.602;11.534;2023-07-16T07:14:52;24.50;99.90
33207;DHT22;19565;46.602;11.534;2023-07-16T07:17:21;24.60;99.90
33207;DHT22;19565;46.602;11.534;2023-07-16T07:19:49;24.60;99.90
33207;DHT22;19565;46.602;11.534;2023-07-16T07:22:17;24.70;99.90
33207;DHT22;19565;46.602;11.534;2023-07-16T07:24:48;24.70;99.90
33207;DHT22;19565;46.602;11.534;2023-07-16T07:27:17;24.80;99.90
33207;DHT22;19565;46.602;11.534;2023-07-16T07:29:45;24.80;99.90
33207;DHT22;19565;46.602;11.534;2023-07-16T07:32:20;24.80;99.90
33207;DHT22;19565;46.602;11.534;2023-07-16T07:34:48;24.90;99.90
33207;DHT22;19565;46.602;11.534;2023-07-16T07:37:16;24.90;99.90
33207;DHT22;19565;46.602;11.534;2023-07-16T07:39:45;25.00;99.90
33207;DHT22;19565;46.602;11.534;2023-07-16T07:42:14;25.00;99.90
33207;DHT22;19565;46.602;11.534;2023-07-16T07:44:42;25.00;99.90
33207;DHT22;19565;46.602;11.534;2023-07-16T07:47:10;25.10;99.90
33207;DHT22;19565;46.602;11.534;2023-07-16T07:49:40;25.10;99.40
33207;DHT22;19565;46.602;11.534;2023-07-16T07:52:08;25.10;98.60
33207;DHT22;19565;46.602;11.534;2023-07-16T07:54:36;25.10;98.00
33207;DHT22;19565;46.602;11.534;2023-07-16T07:57:04;25.20;97.80
33207;DHT22;19565;46.602;11.534;2023-07-16T07:59:33;25.20;98.20
33207;DHT22;19565;46.602;11.534;2023-07-16T08:02:01;25.30;98.90
33207;DHT22;19565;46.602;11.534;2023-07-16T08:04:29;25.30;99.30
33207;DHT22;19565;46.602;11.534;2023-07-16T08:07:00;25.40;99.00
33207;DHT22;19565;46.602;11.534;2023-07-16T08:09:30;25.50;98.50
33207;DHT22;19565;46.602;11.534;2023-07-16T08:11:58;25.50;98.40
33207;DHT22;19565;46.602;11.534;2023-07-16T08:14:26;25.60;98.50
33207;DHT22;19565;46.602;11.534;2023-07-16T08:16:55;25.60;98.60
33207;DHT22;19565;46.602;11.534;2023-07-16T08:19:23;25.70;98.90
33207;DHT22;19565;46.602;11.534;2023-07-16T08:21:51;25.80;99.10
33207;DHT22;19565;46.602;11.534;2023-07-16T08:24:21;25.80;98.70
33207;DHT22;19565;46.602;11.534;2023-07-16T08:26:49;25.90;99.20
33207;DHT22;19565;46.602;11.534;2023-07-16T08:29:17;26.00;98.60
33207;DHT22;19565;46.602;11.534;2023-07-16T08:31:45;26.10;97.80
33207;DHT22;19565;46.602;11.534;2023-07-16T08:34:13;26.20;97.80
33207;DHT22;19565;46.602;11.534;2023-07-16T08:36:41;26.20;97.70
33207;DHT22;19565;46.602;11.534;2023-07-16T08:39:10;26.20;97.20
33207;DHT22;19565;46.602;11.534;2023-07-16T08:41:40;26.20;97.30
33207;DHT22;19565;46.602;11.534;2023-07-16T08:44:08;26.20;97.70
33207;DHT22;19565;46.602;11.534;2023-07-16T08:46:37;26.20;97.60
33207;DHT22;19565;46.602;11.534;2023-07-16T08:49:07;26.20;97.30
33207;DHT22;19565;46.602;11.534;2023-07-16T08:51:36;26.20;97.60
33207;DHT22;19565;46.602;11.534;2023-07-16T08:54:05;26.30;97.80
33207;DHT22;19565;46.602;11.534;2023-07-16T08:56:33;26.30;98.20
33207;DHT22;19565;46.602;11.534;2023-07-16T08:59:03;26.30;98.50
33207;DHT22;19565;46.602;11.534;2023-07-16T09:01:31;26.40;98.50
33207;DHT22;19565;46.602;11.534;2023-07-16T09:04:00;26.40;97.70
33207;DHT22;19565;46.602;11.534;2023-07-16T09:06:28;26.50;98.40
33207;DHT22;19565;46.602;11.534;2023-07-16T09:08:56;26.50;98.30
33207;DHT22;19565;46.602;11.534;2023-07-16T09:11:24;26.50;98.40
33207;DHT22;19565;46.602;11.534;2023-07-16T09:13:52;26.60;98.50
33207;DHT22;19565;46.602;11.534;2023-07-16T09:16:21;26.70;98.30
33207;DHT22;19565;46.602;11.534;2023-07-16T09:18:49;26.80;98.40
33207;DHT22;19565;46.602;11.534;2023-07-16T09:21:17;26.80;97.60
33207;DHT22;19565;46.602;11.534;2023-07-16T09:23:45;26.80;97.10
33207;DHT22;19565;46.602;11.534;2023-07-16T09:26:13;26.90;97.30
33207;DHT22;19565;46.602;11.534;2023-07-16T09:28:42;26.90;97.60
33207;DHT22;19565;46.602;11.534;2023-07-16T09:31:10;27.00;97.70
33207;DHT22;19565;46.602;11.534;2023-07-16T09:33:40;27.00;97.70
33207;DHT22;19565;46.602;11.534;2023-07-16T09:36:08;27.00;97.60
33207;DHT22;19565;46.602;11.534;2023-07-16T09:38:37;27.10;97.40
33207;DHT22;19565;46.602;11.534;2023-07-16T09:41:06;27.10;97.00
33207;DHT22;19565;46.602;11.534;2023-07-16T09:43:35;27.10;97.40
33207;DHT22;19565;46.602;11.534;2023-07-16T09:46:03;27.10;97.10
33207;DHT22;19565;46.602;11.534;2023-07-16T09:48:31;27.10;97.40
33207;DHT22;19565;46.602;11.534;2023-07-16T09:51:00;27.20;97.00
33207;DHT22;19565;46.602;11.534;2023-07-16T09:53:31;27.20;97.10
33207;DHT22;19565;46.602;11.534;2023-07-16T09:56:02;27.20;97.60
33207;DHT22;19565;46.602;11.534;2023-07-16T09:58:32;27.30;97.40
33207;DHT22;19565;46.602;11.534;2023-07-16T10:01:01;27.30;97.10
33207;DHT22;19565;46.602;11.534;2023-07-16T10:03:30;27.30;97.10
33207;DHT22;19565;46.602;11.534;2023-07-16T10:06:07;27.30;96.80
33207;DHT22;19565;46.602;11.534;2023-07-16T10:08:38;27.40;97.00
33207;DHT22;19565;46.602;11.534;2023-07-16T10:11:16;27.40;96.60
33207;DHT22;19565;46.602;11.534;2023-07-16T10:13:49;27.50;96.40
33207;DHT22;19565;46.602;11.534;2023-07-16T10:16:21;27.50;97.00
33207;DHT22;19565;46.602;11.534;2023-07-16T10:18:51;27.60;96.50
33207;DHT22;19565;46.602;11.534;2023-07-16T10:21:24;27.60;96.60
33207;DHT22;19565;46.602;11.534;2023-07-16T10:23:57;27.60;96.30
33207;DHT22;19565;46.602;11.534;2023-07-16T10:26:27;27.70;96.00
33207;DHT22;19565;46.602;11.534;2023-07-16T10:28:56;27.70;96.20
33207;DHT22;19565;46.602;11.534;2023-07-16T10:31:25;27.70;96.40
33207;DHT22;19565;46.602;11.534;2023-07-16T10:34:00;27.80;95.40
33207;DHT22;19565;46.602;11.534;2023-07-16T10:36:29;27.80;94.50
33207;DHT22;19565;46.602;11.534;2023-07-16T10:39:04;27.90;94.10
33207;DHT22;19565;46.602;11.534;2023-07-16T10:41:32;28.00;94.20
33207;DHT22;19565;46.602;11.534;2023-07-16T10:44:01;28.00;94.20
33207;DHT22;19565;46.602;11.534;2023-07-16T10:46:31;28.00;94.00
33207;DHT22;19565;46.602;11.534;2023-07-16T10:49:00;28.10;94.20
33207;DHT22;19565;46.602;11.534;2023-07-16T10:51:30;28.10;94.20
33207;DHT22;19565;46.602;11.534;2023-07-16T10:53:58;28.10;93.80
33207;DHT22;19565;46.602;11.534;2023-07-16T10:56:26;28.20;93.90
33207;DHT22;19565;46.602;11.534;2023-07-16T10:58:54;28.30;93.70
33207;DHT22;19565;46.602;11.534;2023-07-16T11:01:22;28.30;93.50
33207;DHT22;19565;46.602;11.534;2023-07-16T11:03:50;28.40;93.30
33207;DHT22;19565;46.602;11.534;2023-07-16T11:06:19;28.40;92.40
33207;DHT22;19565;46.602;11.534;2023-07-16T11:08:49;28.50;92.20
33207;DHT22;19565;46.602;11.534;2023-07-16T11:11:28;28.50;91.60
33207;DHT22;19565;46.602;11.534;2023-07-16T11:13:59;28.60;90.80
33207;DHT22;19565;46.602;11.534;2023-07-16T11:16:27;28.70;91.50
33207;DHT22;19565;46.602;11.534;2023-07-16T11:19:02;28.70;91.00
33207;DHT22;19565;46.602;11.534;2023-07-16T11:21:30;28.70;90.30
33207;DHT22;19565;46.602;11.534;2023-07-16T11:24:09;28.70;90.30
33207;DHT22;19565;46.602;11.534;2023-07-16T11:26:37;28.80;90.70
33207;DHT22;19565;46.602;11.534;2023-07-16T11:29:12;28.80;91.00
33207;DHT22;19565;46.602;11.534;2023-07-16T11:31:41;28.90;90.30
33207;DHT22;19565;46.602;11.534;2023-07-16T11:34:13;28.90;90.70
33207;DHT22;19565;46.602;11.534;2023-07-16T11:36:41;29.00;90.50
33207;DHT22;19565;46.602;11.534;2023-07-16T11:39:12;29.00;90.30
33207;DHT22;19565;46.602;11.534;2023-07-16T11:41:40;29.00;89.10
33207;DHT22;19565;46.602;11.534;2023-07-16T11:44:08;29.00;88.20
33207;DHT22;19565;46.602;11.534;2023-07-16T11:46:36;29.10;88.90
33207;DHT22;19565;46.602;11.534;2023-07-16T11:49:04;29.10;88.60
33207;DHT22;19565;46.602;11.534;2023-07-16T11:51:32;29.20;89.20
33207;DHT22;19565;46.602;11.534;2023-07-16T11:54:00;29.30;89.20
33207;DHT22;19565;46.602;11.534;2023-07-16T11:56:30;29.30;88.40
33207;DHT22;19565;46.602;11.534;2023-07-16T11:58:58;29.30;87.20
33207;DHT22;19565;46.602;11.534;2023-07-16T12:01:26;29.30;86.20
33207;DHT22;19565;46.602;11.534;2023-07-16T12:03:54;29.40;86.50
33207;DHT22;19565;46.602;11.534;2023-07-16T12:06:22;29.40;87.00
33207;DHT22;19565;46.602;11.534;2023-07-16T12:08:50;29.40;87.10
33207;DHT22;19565;46.602;11.534;2023-07-16T12:11:18;29.50;85.30
33207;DHT22;19565;46.602;11.534;2023-07-16T12:13:47;29.50;83.30
33207;DHT22;19565;46.602;11.534;2023-07-16T12:16:15;29.50;83.40
33207;DHT22;19565;46.602;11.534;2023-07-16T12:18:44;29.60;85.90
33207;DHT22;19565;46.602;11.534;2023-07-16T12:21:12;29.60;85.80
33207;DHT22;19565;46.602;11.534;2023-07-16T12:23:40;29.60;82.30
33207;DHT22;19565;46.602;11.534;2023-07-16T12:26:08;29.70;80.60
33207;DHT22;19565;46.602;11.534;2023-07-16T12:28:36;29.70;78.50
33207;DHT22;19565;46.602;11.534;2023-07-16T12:31:05;29.80;78.40
33207;DHT22;19565;46.602;11.534;2023-07-16T12:33:33;29.80;78.90
33207;DHT22;19565;46.602;11.534;2023-07-16T12:36:01;29.90;77.10
33207;DHT22;19565;46.602;11.534;2023-07-16T12:38:29;29.90;77.00
33207;DHT22;19565;46.602;11.534;2023-07-16T12:40:58;30.00;76.80
33207;DHT22;19565;46.602;11.534;2023-07-16T12:43:26;30.00;76.10
33207;DHT22;19565;46.602;11.534;2023-07-16T12:45:54;30.00;76.50
33207;DHT22;19565;46.602;11.534;2023-07-16T12:48:23;30.10;76.20
33207;DHT22;19565;46.602;11.534;2023-07-16T12:50:51;30.10;78.60
33207;DHT22;19565;46.602;11.534;2023-07-16T12:53:20;30.10;73.10
33207;DHT22;19565;46.602;11.534;2023-07-16T12:55:48;30.20;71.00
33207;DHT22;19565;46.602;11.534;2023-07-16T12:58:16;30.20;72.10
33207;DHT22;19565;46.602;11.534;2023-07-16T13:00:44;30.10;75.20
33207;DHT22;19565;46.602;11.534;2023-07-16T13:03:12;30.20;76.40
33207;DHT22;19565;46.602;11.534;2023-07-16T13:05:46;30.20;74.40
33207;DHT22;19565;46.602;11.534;2023-07-16T13:08:14;30.20;75.00
33207;DHT22;19565;46.602;11.534;2023-07-16T13:10:42;30.30;72.20
33207;DHT22;19565;46.602;11.534;2023-07-16T13:13:10;30.30;71.30
33207;DHT22;19565;46.602;11.534;2023-07-16T13:15:38;30.40;71.30
33207;DHT22;19565;46.602;11.534;2023-07-16T13:18:07;30.50;71.40
33207;DHT22;19565;46.602;11.534;2023-07-16T13:20:37;30.50;72.60
33207;DHT22;19565;46.602;11.534;2023-07-16T13:23:06;30.50;71.80
33207;DHT22;19565;46.602;11.534;2023-07-16T13:25:35;30.50;71.60
33207;DHT22;19565;46.602;11.534;2023-07-16T13:28:05;30.50;72.60
33207;DHT22;19565;46.602;11.534;2023-07-16T13:30:33;30.50;72.30
33207;DHT22;19565;46.602;11.534;2023-07-16T13:33:01;30.50;70.70
33207;DHT22;19565;46.602;11.534;2023-07-16T13:35:29;30.60;70.90
33207;DHT22;19565;46.602;11.534;2023-07-16T13:37:57;30.60;72.40
33207;DHT22;19565;46.602;11.534;2023-07-16T13:40:27;30.60;70.90
33207;DHT22;19565;46.602;11.534;2023-07-16T13:42:54;30.70;70.30
33207;DHT22;19565;46.602;11.534;2023-07-16T13:45:23;30.70;69.80
33207;DHT22;19565;46.602;11.534;2023-07-16T13:47:51;30.80;67.70
33207;DHT22;19565;46.602;11.534;2023-07-16T13:50:20;30.80;68.30
33207;DHT22;19565;46.602;11.534;2023-07-16T13:52:48;30.90;66.00
33207;DHT22;19565;46.602;11.534;2023-07-16T13:55:16;30.90;65.80
33207;DHT22;19565;46.602;11.534;2023-07-16T13:57:46;31.00;65.50
33207;DHT22;19565;46.602;11.534;2023-07-16T14:00:14;31.00;66.20
33207;DHT22;19565;46.602;11.534;2023-07-16T14:02:44;31.00;65.50
33207;DHT22;19565;46.602;11.534;2023-07-16T14:05:12;31.00;67.80
33207;DHT22;19565;46.602;11.534;2023-07-16T14:07:40;31.10;68.00
33207;DHT22;19565;46.602;11.534;2023-07-16T14:10:09;31.10;69.50
33207;DHT22;19565;46.602;11.534;2023-07-16T14:12:37;31.10;67.80
33207;DHT22;19565;46.602;11.534;2023-07-16T14:15:07;31.20;65.10
33207;DHT22;19565;46.602;11.534;2023-07-16T14:17:35;31.30;68.80
33207;DHT22;19565;46.602;11.534;2023-07-16T14:20:04;31.30;69.30
33207;DHT22;19565;46.602;11.534;2023-07-16T14:22:33;31.30;67.30
33207;DHT22;19565;46.602;11.534;2023-07-16T14:25:01;31.30;64.30
33207;DHT22;19565;46.602;11.534;2023-07-16T14:27:30;31.40;63.40
33207;DHT22;19565;46.602;11.534;2023-07-16T14:29:59;31.90;60.50
33207;DHT22;19565;46.602;11.534;2023-07-16T14:32:34;32.70;59.80
33207;DHT22;19565;46.602;11.534;2023-07-16T14:35:03;34.20;58.30
33207;DHT22;19565;46.602;11.534;2023-07-16T14:37:31;35.80;55.60
33207;DHT22;19565;46.602;11.534;2023-07-16T14:39:59;37.20;50.40
33207;DHT22;19565;46.602;11.534;2023-07-16T14:42:27;38.50;46.80
33207;DHT22;19565;46.602;11.534;2023-07-16T14:44:55;39.50;42.80
33207;DHT22;19565;46.602;11.534;2023-07-16T14:47:23;40.20;43.00
33207;DHT22;19565;46.602;11.534;2023-07-16T14:49:53;40.50;43.80
33207;DHT22;19565;46.602;11.534;2023-07-16T14:52:21;40.70;42.30
33207;DHT22;19565;46.602;11.534;2023-07-16T14:54:49;41.00;42.10
33207;DHT22;19565;46.602;11.534;2023-07-16T14:57:17;41.20;42.30
33207;DHT22;19565;46.602;11.534;2023-07-16T14:59:45;41.40;42.70
33207;DHT22;19565;46.602;11.534;2023-07-16T15:02:13;41.50;42.30
33207;DHT22;19565;46.602;11.534;2023-07-16T15:04:41;41.90;40.30
33207;DHT22;19565;46.602;11.534;2023-07-16T15:07:11;42.10;40.30
33207;DHT22;19565;46.602;11.534;2023-07-16T15:09:39;42.20;39.00
33207;DHT22;19565;46.602;11.534;2023-07-16T15:12:07;42.30;37.90
33207;DHT22;19565;46.602;11.534;2023-07-16T15:14:36;42.40;36.30
33207;DHT22;19565;46.602;11.534;2023-07-16T15:17:04;42.60;38.60
33207;DHT22;19565;46.602;11.534;2023-07-16T15:19:33;42.30;38.30
33207;DHT22;19565;46.602;11.534;2023-07-16T15:22:02;42.30;36.80
33207;DHT22;19565;46.602;11.534;2023-07-16T15:24:33;42.10;38.50